createdAt,value
2018-09-01T00:00:43.022Z,11.13
2018-09-01T00:03:11.624Z,11.06
2018-09-01T00:05:40.306Z,10.96
2018-09-01T00:08:08.906Z,10.88
2018-09-01T00:10:37.519Z,10.76
2018-09-01T00:13:06.141Z,10.72
2018-09-01T00:15:34.994Z,10.68
2018-09-01T00:18:03.599Z,10.67
2018-09-01T00:20:32.218Z,10.73
2018-09-01T00:23:00.809Z,10.80
2018-09-01T00:25:29.464Z,10.83
2018-09-01T00:27:58.081Z,10.82
2018-09-01T00:30:26.692Z,10.80
2018-09-01T00:32:55.287Z,10.77
2018-09-01T00:35:23.896Z,10.72
2018-09-01T00:37:57.556Z,10.56
2018-09-01T00:40:27.512Z,10.45
2018-09-01T00:42:57.922Z,10.41
2018-09-01T00:45:26.643Z,10.40
2018-09-01T00:47:55.258Z,10.37
2018-09-01T00:50:23.941Z,10.30
2018-09-01T00:52:52.548Z,10.24
2018-09-01T00:55:26.320Z,10.22
2018-09-01T00:57:55.080Z,10.17
2018-09-01T01:00:23.977Z,10.10
2018-09-01T01:02:52.848Z,10.04
2018-09-01T01:05:21.917Z,9.97
2018-09-01T01:07:50.540Z,9.93
2018-09-01T01:10:19.139Z,9.91
2018-09-01T01:12:48.724Z,9.92
2018-09-01T01:15:17.417Z,9.90
2018-09-01T01:17:45.974Z,9.88
2018-09-01T01:20:14.565Z,9.86
2018-09-01T01:22:43.148Z,9.80
2018-09-01T01:25:11.753Z,9.75
2018-09-01T01:27:40.385Z,9.70
2018-09-01T01:30:09.005Z,9.66
2018-09-01T01:32:37.761Z,9.66
2018-09-01T01:35:06.464Z,9.60
2018-09-01T01:37:36.816Z,9.56
2018-09-01T01:40:06.238Z,9.57
2018-09-01T01:42:36.103Z,9.59
2018-09-01T01:45:05.034Z,9.63
2018-09-01T01:47:38.848Z,9.64
2018-09-01T01:50:08.542Z,9.66
2018-09-01T01:52:37.118Z,9.72
2018-09-01T01:55:05.987Z,9.77
2018-09-01T01:57:38.692Z,9.80
2018-09-01T02:00:07.696Z,9.84
2018-09-01T02:02:36.751Z,9.85
2018-09-01T02:05:06.432Z,9.78
2018-09-01T02:07:34.994Z,9.72
2018-09-01T02:10:03.653Z,9.71
2018-09-01T02:12:32.225Z,9.69
2018-09-01T02:15:01.110Z,9.68
2018-09-01T02:17:29.757Z,9.71
2018-09-01T02:19:58.340Z,9.66
2018-09-01T02:22:26.913Z,9.64
2018-09-01T02:24:55.540Z,9.61
2018-09-01T02:27:24.132Z,9.60
2018-09-01T02:29:52.750Z,9.64
2018-09-01T02:32:21.386Z,9.70
2018-09-01T02:34:50.021Z,9.72
2018-09-01T02:37:18.621Z,9.73
2018-09-01T02:39:47.266Z,9.66
2018-09-01T02:42:15.850Z,9.63
2018-09-01T02:44:44.588Z,9.61
2018-09-01T02:47:13.222Z,9.55
2018-09-01T02:49:41.805Z,9.53
2018-09-01T02:52:10.418Z,9.56
2018-09-01T02:54:39.021Z,9.63
2018-09-01T02:57:07.835Z,9.68
2018-09-01T02:59:36.471Z,9.68
2018-09-01T03:02:05.209Z,9.55
2018-09-01T03:04:33.832Z,9.40
2018-09-01T03:07:02.578Z,9.32
2018-09-01T03:09:31.181Z,9.27
2018-09-01T03:12:00.102Z,9.29
2018-09-01T03:14:29.005Z,9.32
2018-09-01T03:16:57.917Z,9.40
2018-09-01T03:19:27.013Z,9.54
2018-09-01T03:21:55.618Z,9.54
2018-09-01T03:24:24.208Z,9.51
2018-09-01T03:26:52.822Z,9.31
2018-09-01T03:29:21.408Z,9.09
2018-09-01T03:31:50.005Z,9.11
2018-09-01T03:34:18.592Z,9.24
2018-09-01T03:36:47.195Z,9.39
2018-09-01T03:39:15.770Z,9.59
2018-09-01T03:41:44.393Z,9.71
2018-09-01T03:44:12.969Z,9.81
2018-09-01T03:46:41.593Z,9.87
2018-09-01T03:49:10.833Z,9.90
2018-09-01T03:51:39.437Z,9.98
2018-09-01T03:54:08.030Z,10.15
2018-09-01T03:56:36.643Z,10.24
2018-09-01T03:59:05.412Z,10.30
2018-09-01T04:01:34.004Z,10.35
2018-09-01T04:04:02.729Z,10.39
2018-09-01T04:06:31.342Z,10.40
2018-09-01T04:08:59.929Z,10.40
2018-09-01T04:11:28.532Z,10.38
2018-09-01T04:13:57.174Z,10.41
2018-09-01T04:16:25.776Z,10.46
2018-09-01T04:18:54.404Z,10.53
2018-09-01T04:21:23.017Z,10.60
2018-09-01T04:23:51.624Z,10.66
2018-09-01T04:26:20.257Z,10.75
2018-09-01T04:28:48.836Z,10.86
2018-09-01T04:31:17.440Z,10.91
2018-09-01T04:33:46.019Z,10.95
2018-09-01T04:36:14.638Z,11.01
2018-09-01T04:38:43.227Z,11.10
2018-09-01T04:41:11.896Z,11.17
2018-09-01T04:43:40.531Z,11.24
2018-09-01T04:46:09.137Z,11.32
2018-09-01T04:48:37.734Z,11.39
2018-09-01T04:51:06.323Z,11.46
2018-09-01T04:53:34.918Z,11.54
2018-09-01T04:56:03.498Z,11.62
2018-09-01T04:58:32.127Z,11.72
2018-09-01T05:01:00.765Z,11.80
2018-09-01T05:03:29.369Z,11.87
2018-09-01T05:05:57.945Z,11.94
2018-09-01T05:08:26.562Z,12.01
2018-09-01T05:10:55.147Z,12.06
2018-09-01T05:13:23.740Z,12.10
2018-09-01T05:15:52.309Z,12.12
2018-09-01T05:18:20.876Z,12.14
2018-09-01T05:20:49.441Z,12.17
2018-09-01T05:23:18.098Z,12.20
2018-09-01T05:25:46.761Z,12.23
2018-09-01T05:28:15.364Z,12.27
2018-09-01T05:30:43.963Z,12.30
2018-09-01T05:33:12.610Z,12.36
2018-09-01T05:35:41.231Z,12.46
2018-09-01T05:38:09.835Z,12.48
2018-09-01T05:40:38.414Z,12.46
2018-09-01T05:43:07.015Z,12.47
2018-09-01T05:45:35.598Z,12.51
2018-09-01T05:48:04.222Z,12.52
2018-09-01T05:50:32.791Z,12.52
2018-09-01T05:53:01.383Z,12.49
2018-09-01T05:55:30.046Z,12.50
2018-09-01T05:57:58.656Z,12.54
2018-09-01T06:00:27.329Z,12.58
2018-09-01T06:02:55.940Z,12.63
2018-09-01T06:05:24.519Z,12.69
2018-09-01T06:07:53.135Z,12.78
2018-09-01T06:10:21.729Z,12.79
2018-09-01T06:12:50.325Z,12.85
2018-09-01T06:15:18.906Z,12.91
2018-09-01T06:17:47.563Z,12.91
2018-09-01T06:20:16.118Z,12.97
2018-09-01T06:22:44.754Z,13.02
2018-09-01T06:25:13.354Z,13.09
2018-09-01T06:27:45.345Z,13.22
2018-09-01T06:30:16.478Z,13.33
2018-09-01T06:32:45.104Z,13.45
2018-09-01T06:35:13.694Z,13.64
2018-09-01T06:37:42.368Z,13.74
2018-09-01T06:40:10.931Z,13.67
2018-09-01T06:42:39.552Z,13.61
2018-09-01T06:45:08.167Z,13.55
2018-09-01T06:47:36.760Z,13.61
2018-09-01T06:50:05.484Z,13.58
2018-09-01T06:52:34.094Z,13.51
2018-09-01T06:55:02.677Z,13.55
2018-09-01T06:57:31.385Z,13.66
2018-09-01T07:00:00.010Z,13.71
2018-09-01T07:02:28.632Z,13.66
2018-09-01T07:04:57.229Z,13.61
2018-09-01T07:07:25.808Z,13.58
2018-09-01T07:09:54.422Z,13.55
2018-09-01T07:12:23.006Z,13.57
2018-09-01T07:14:51.610Z,13.66
2018-09-01T07:17:20.197Z,13.78
2018-09-01T07:19:48.790Z,13.82
2018-09-01T07:22:17.350Z,13.82
2018-09-01T07:24:45.975Z,13.84
2018-09-01T07:27:14.563Z,13.98
2018-09-01T07:29:43.177Z,14.16
2018-09-01T07:32:11.791Z,14.39
2018-09-01T07:34:40.463Z,14.49
2018-09-01T07:37:09.112Z,14.45
2018-09-01T07:39:37.718Z,14.48
2018-09-01T07:42:06.469Z,14.54
2018-09-01T07:44:35.125Z,14.73
2018-09-01T07:47:03.731Z,14.88
2018-09-01T07:49:32.325Z,14.93
2018-09-01T07:52:00.905Z,14.97
2018-09-01T07:54:29.554Z,15.02
2018-09-01T07:56:58.132Z,15.01
2018-09-01T07:59:26.748Z,15.14
2018-09-01T08:01:55.335Z,15.29
2018-09-01T08:04:23.932Z,15.43
2018-09-01T08:06:52.534Z,15.59
2018-09-01T08:09:21.434Z,15.75
2018-09-01T08:11:50.455Z,15.91
2018-09-01T08:14:19.150Z,16.18
2018-09-01T08:16:48.111Z,16.51
2018-09-01T08:19:16.784Z,16.73
2018-09-01T08:21:45.399Z,16.63
2018-09-01T08:24:14.025Z,16.69
2018-09-01T08:26:42.608Z,16.84
2018-09-01T08:29:11.246Z,16.87
2018-09-01T08:31:39.824Z,17.01
2018-09-01T08:34:08.454Z,17.21
2018-09-01T08:36:37.105Z,17.18
2018-09-01T08:39:07.083Z,17.09
2018-09-01T08:41:35.730Z,17.42
2018-09-01T08:44:04.387Z,17.79
2018-09-01T08:46:32.975Z,17.95
2018-09-01T08:49:01.561Z,18.05
2018-09-01T08:51:30.134Z,18.05
2018-09-01T08:53:58.735Z,18.45
2018-09-01T08:56:27.368Z,18.96
2018-09-01T08:58:55.990Z,19.27
2018-09-01T09:01:24.595Z,19.39
2018-09-01T09:03:53.170Z,18.86
2018-09-01T09:06:21.779Z,18.17
2018-09-01T09:08:50.390Z,17.93
2018-09-01T09:11:18.983Z,18.37
2018-09-01T09:13:47.605Z,19.00
2018-09-01T09:16:16.207Z,19.37
2018-09-01T09:18:44.848Z,19.08
2018-09-01T09:21:13.476Z,19.06
2018-09-01T09:23:42.067Z,19.17
2018-09-01T09:26:10.673Z,19.50
2018-09-01T09:28:39.248Z,19.62
2018-09-01T09:31:07.946Z,19.08
2018-09-01T09:33:36.542Z,18.65
2018-09-01T09:36:05.266Z,18.26
2018-09-01T09:38:33.842Z,17.96
2018-09-01T09:41:02.454Z,17.81
2018-09-01T09:43:31.035Z,17.83
2018-09-01T09:45:59.654Z,18.30
2018-09-01T09:48:28.245Z,19.13
2018-09-01T09:50:56.897Z,19.79
2018-09-01T09:53:25.543Z,20.03
2018-09-01T09:55:54.164Z,19.87
2018-09-01T09:58:22.885Z,20.20
2018-09-01T10:00:59.101Z,20.75
2018-09-01T10:03:28.387Z,21.38
2018-09-01T10:05:57.000Z,21.50
2018-09-01T10:08:25.564Z,21.75
2018-09-01T10:10:54.171Z,21.26
2018-09-01T10:13:22.739Z,21.44
2018-09-01T10:15:51.333Z,21.38
2018-09-01T10:18:19.947Z,21.13
2018-09-01T10:20:48.533Z,20.74
2018-09-01T10:23:17.145Z,20.37
2018-09-01T10:25:45.755Z,20.29
2018-09-01T10:28:14.312Z,20.58
2018-09-01T10:30:42.886Z,20.91
2018-09-01T10:33:11.467Z,21.01
2018-09-01T10:35:40.057Z,20.86
2018-09-01T10:38:09.061Z,21.08
2018-09-01T10:40:37.677Z,21.34
2018-09-01T10:43:06.448Z,21.52
2018-09-01T10:45:35.410Z,21.49
2018-09-01T10:48:04.086Z,21.65
2018-09-01T10:50:32.692Z,21.63
2018-09-01T10:53:01.265Z,21.75
2018-09-01T10:55:29.899Z,21.75
2018-09-01T10:57:58.494Z,21.51
2018-09-01T11:00:27.087Z,21.53
2018-09-01T11:02:55.689Z,21.71
2018-09-01T11:05:24.333Z,21.78
2018-09-01T11:07:52.899Z,21.83
2018-09-01T11:10:21.499Z,22.10
2018-09-01T11:12:50.120Z,22.34
2018-09-01T11:15:18.704Z,22.62
2018-09-01T11:17:47.338Z,22.80
2018-09-01T11:20:16.011Z,22.91
2018-09-01T11:22:44.627Z,22.44
2018-09-01T11:25:13.232Z,21.32
2018-09-01T11:27:41.862Z,21.18
2018-09-01T11:30:11.520Z,20.92
2018-09-01T11:32:40.122Z,21.22
2018-09-01T11:35:09.022Z,21.69
2018-09-01T11:37:37.630Z,22.02
2018-09-01T11:40:06.356Z,22.46
2018-09-01T11:42:35.024Z,22.61
2018-09-01T11:45:03.585Z,22.71
2018-09-01T11:47:32.183Z,22.60
2018-09-01T11:50:00.832Z,22.55
2018-09-01T11:52:29.401Z,22.75
2018-09-01T11:54:58.059Z,22.82
2018-09-01T11:57:26.673Z,23.13
2018-09-01T11:59:55.268Z,23.34
2018-09-01T12:02:23.895Z,23.50
2018-09-01T12:04:52.502Z,23.56
2018-09-01T12:07:21.105Z,23.76
2018-09-01T12:09:49.699Z,23.50
2018-09-01T12:12:18.283Z,22.71
2018-09-01T12:14:46.847Z,22.03
2018-09-01T12:17:15.464Z,21.59
2018-09-01T12:19:44.041Z,21.22
2018-09-01T12:22:12.716Z,20.88
2018-09-01T12:24:41.306Z,20.87
2018-09-01T12:27:09.936Z,21.48
2018-09-01T12:29:39.337Z,21.88
2018-09-01T12:32:07.938Z,21.90
2018-09-01T12:34:36.489Z,21.83
2018-09-01T12:37:05.090Z,22.00
2018-09-01T12:39:33.649Z,22.44
2018-09-01T12:42:02.277Z,22.92
2018-09-01T12:44:30.851Z,22.86
2018-09-01T12:46:59.427Z,22.78
2018-09-01T12:49:27.999Z,22.73
2018-09-01T12:51:56.580Z,23.00
2018-09-01T12:54:25.148Z,23.19
2018-09-01T12:56:53.729Z,23.17
2018-09-01T12:59:22.361Z,23.19
2018-09-01T13:01:50.960Z,23.15
2018-09-01T13:04:19.540Z,22.91
2018-09-01T13:06:48.181Z,22.34
2018-09-01T13:09:16.752Z,21.56
2018-09-01T13:11:45.344Z,21.01
2018-09-01T13:14:13.923Z,20.70
2018-09-01T13:16:42.480Z,20.63
2018-09-01T13:19:11.196Z,21.00
2018-09-01T13:21:39.765Z,21.60
2018-09-01T13:24:08.388Z,22.08
2018-09-01T13:26:36.959Z,22.52
2018-09-01T13:29:05.581Z,22.92
2018-09-01T13:31:34.160Z,23.10
2018-09-01T13:34:03.478Z,23.25
2018-09-01T13:36:32.048Z,23.22
2018-09-01T13:39:00.671Z,23.07
2018-09-01T13:41:29.273Z,22.77
2018-09-01T13:43:57.851Z,22.42
2018-09-01T13:46:26.410Z,22.14
2018-09-01T13:48:54.998Z,21.99
2018-09-01T13:51:23.564Z,21.94
2018-09-01T13:53:52.170Z,21.97
2018-09-01T13:56:20.732Z,21.97
2018-09-01T13:58:49.334Z,22.26
2018-09-01T14:01:17.897Z,22.58
2018-09-01T14:03:46.479Z,22.71
2018-09-01T14:06:15.053Z,22.92
2018-09-01T14:08:43.625Z,22.96
2018-09-01T14:11:12.216Z,22.95
2018-09-01T14:13:40.810Z,22.96
2018-09-01T14:16:09.367Z,22.83
2018-09-01T14:18:38.004Z,22.78
2018-09-01T14:21:07.079Z,22.90
2018-09-01T14:23:35.666Z,23.05
2018-09-01T14:26:04.242Z,23.24
2018-09-01T14:28:32.848Z,23.37
2018-09-01T14:31:01.442Z,23.41
2018-09-01T14:33:30.041Z,23.26
2018-09-01T14:35:58.686Z,23.17
2018-09-01T14:38:27.297Z,23.08
2018-09-01T14:40:55.892Z,22.94
2018-09-01T14:43:24.509Z,22.80
2018-09-01T14:45:53.105Z,22.72
2018-09-01T14:48:21.787Z,22.32
2018-09-01T14:50:50.305Z,21.77
2018-09-01T14:53:18.970Z,21.37
2018-09-01T14:55:47.568Z,21.31
2018-09-01T14:58:16.181Z,21.53
2018-09-01T15:00:44.772Z,21.87
2018-09-01T15:03:13.380Z,21.99
2018-09-01T15:05:41.966Z,21.94
2018-09-01T15:08:10.567Z,21.80
2018-09-01T15:10:39.145Z,21.62
2018-09-01T15:13:07.746Z,21.22
2018-09-01T15:15:36.327Z,20.98
2018-09-01T15:18:04.953Z,20.82
2018-09-01T15:20:33.590Z,20.90
2018-09-01T15:23:02.450Z,21.07
2018-09-01T15:25:31.125Z,21.26
2018-09-01T15:27:59.700Z,21.35
2018-09-01T15:30:28.300Z,21.43
2018-09-01T15:32:56.871Z,21.46
2018-09-01T15:35:25.513Z,21.43
2018-09-01T15:37:54.172Z,21.41
2018-09-01T15:40:22.791Z,21.38
2018-09-01T15:42:51.362Z,21.31
2018-09-01T15:45:19.936Z,21.24
2018-09-01T15:47:48.589Z,21.23
2018-09-01T15:50:17.180Z,21.13
2018-09-01T15:52:45.813Z,21.09
2018-09-01T15:55:14.406Z,21.05
2018-09-01T15:57:42.980Z,21.02
2018-09-01T16:00:11.589Z,20.92
2018-09-01T16:02:40.153Z,20.80
2018-09-01T16:05:08.737Z,20.69
2018-09-01T16:07:37.309Z,20.69
2018-09-01T16:10:06.157Z,20.67
2018-09-01T16:12:34.763Z,20.67
2018-09-01T16:15:03.373Z,20.69
2018-09-01T16:17:31.943Z,20.70
2018-09-01T16:20:00.566Z,20.72
2018-09-01T16:22:29.193Z,20.70
2018-09-01T16:24:57.811Z,20.67
2018-09-01T16:27:26.404Z,20.65
2018-09-01T16:29:54.990Z,20.64
2018-09-01T16:32:23.590Z,20.59
2018-09-01T16:34:52.195Z,20.42
2018-09-01T16:37:20.822Z,20.40
2018-09-01T16:39:49.416Z,20.35
2018-09-01T16:42:17.972Z,20.29
2018-09-01T16:44:46.569Z,20.24
2018-09-01T16:47:15.151Z,20.15
2018-09-01T16:49:43.776Z,20.09
2018-09-01T16:52:12.528Z,19.99
2018-09-01T16:54:41.085Z,19.90
2018-09-01T16:57:09.666Z,19.80
2018-09-01T16:59:38.277Z,19.75
2018-09-01T17:02:06.961Z,19.65
2018-09-01T17:04:35.579Z,19.49
2018-09-01T17:07:04.191Z,19.32
2018-09-01T17:09:32.882Z,19.22
2018-09-01T17:12:01.474Z,19.13
2018-09-01T17:14:30.084Z,19.01
2018-09-01T17:16:58.652Z,18.92
2018-09-01T17:19:27.261Z,18.78
2018-09-01T17:21:55.834Z,18.56
2018-09-01T17:24:24.458Z,18.43
2018-09-01T17:26:53.057Z,18.32
2018-09-01T17:29:21.637Z,18.22
2018-09-01T17:31:50.284Z,18.12
2018-09-01T17:34:18.849Z,18.01
2018-09-01T17:36:47.441Z,17.89
2018-09-01T17:39:16.041Z,17.76
2018-09-01T17:41:44.646Z,17.66
2018-09-01T17:44:13.242Z,17.49
2018-09-01T17:46:41.838Z,17.36
2018-09-01T17:49:10.425Z,17.20
2018-09-01T17:51:39.053Z,17.05
2018-09-01T17:54:07.660Z,16.92
2018-09-01T17:56:36.353Z,16.79
2018-09-01T17:59:04.951Z,16.67
2018-09-01T18:01:34.044Z,16.54
2018-09-01T18:04:02.776Z,16.39
2018-09-01T18:06:31.384Z,16.23
2018-09-01T18:08:59.961Z,16.04
2018-09-01T18:11:28.565Z,15.85
2018-09-01T18:13:57.181Z,15.73
2018-09-01T18:16:25.820Z,15.64
2018-09-01T18:18:54.401Z,15.57
2018-09-01T18:21:22.993Z,15.49
2018-09-01T18:23:51.574Z,15.40
2018-09-01T18:26:20.164Z,15.33
2018-09-01T18:28:48.722Z,15.27
2018-09-01T18:31:17.406Z,15.19
2018-09-01T18:33:45.956Z,15.12
2018-09-01T18:36:14.566Z,15.03
2018-09-01T18:38:43.154Z,14.94
2018-09-01T18:41:11.836Z,14.88
2018-09-01T18:43:40.361Z,14.80
2018-09-01T18:46:08.951Z,14.70
2018-09-01T18:48:37.524Z,14.63
2018-09-01T18:51:06.174Z,14.54
2018-09-01T18:53:34.854Z,14.44
2018-09-01T18:56:03.495Z,14.39
2018-09-01T18:58:32.071Z,14.29
2018-09-01T19:01:00.734Z,14.22
2018-09-01T19:03:29.364Z,14.14
2018-09-01T19:05:57.984Z,14.07
2018-09-01T19:08:26.562Z,13.96
2018-09-01T19:10:55.159Z,13.83
2018-09-01T19:13:23.742Z,13.72
2018-09-01T19:15:52.321Z,13.58
2018-09-01T19:18:20.895Z,13.44
2018-09-01T19:20:49.491Z,13.33
2018-09-01T19:23:18.068Z,13.21
2018-09-01T19:25:46.673Z,13.13
2018-09-01T19:28:15.255Z,13.04
2018-09-01T19:30:43.818Z,12.94
2018-09-01T19:33:12.432Z,12.79
2018-09-01T19:35:40.994Z,12.73
2018-09-01T19:38:09.598Z,12.74
2018-09-01T19:40:38.228Z,12.73
2018-09-01T19:43:06.863Z,12.72
2018-09-01T19:45:35.589Z,12.63
2018-09-01T19:48:04.070Z,12.55
2018-09-01T19:50:32.877Z,12.45
2018-09-01T19:53:01.485Z,12.34
2018-09-01T19:55:30.060Z,12.25
2018-09-01T19:57:58.648Z,12.22
2018-09-01T20:00:27.206Z,12.20
2018-09-01T20:02:55.823Z,12.14
2018-09-01T20:05:24.409Z,12.04
2018-09-01T20:07:53.013Z,11.95
2018-09-01T20:10:21.748Z,11.97
2018-09-01T20:12:51.849Z,11.88
2018-09-01T20:15:20.484Z,11.75
2018-09-01T20:17:49.063Z,11.75
2018-09-01T20:20:17.674Z,11.81
2018-09-01T20:22:46.236Z,11.78
2018-09-01T20:25:14.915Z,11.66
2018-09-01T20:27:43.538Z,11.60
2018-09-01T20:30:12.184Z,11.53
2018-09-01T20:32:40.790Z,11.50
2018-09-01T20:35:14.641Z,11.47
2018-09-01T20:37:43.292Z,11.43
2018-09-01T20:40:11.871Z,11.34
2018-09-01T20:42:40.477Z,11.32
2018-09-01T20:45:09.080Z,11.24
2018-09-01T20:47:37.769Z,11.16
2018-09-01T20:50:06.405Z,11.15
2018-09-01T20:52:35.018Z,11.17
2018-09-01T20:55:03.640Z,11.24
2018-09-01T20:57:32.244Z,11.25
2018-09-01T21:00:00.828Z,11.22
2018-09-01T21:02:29.426Z,11.18
2018-09-01T21:04:58.022Z,11.13
2018-09-01T21:07:26.636Z,11.11
2018-09-01T21:09:55.219Z,11.06
2018-09-01T21:12:23.812Z,11.02
2018-09-01T21:14:52.380Z,11.00
2018-09-01T21:17:21.003Z,10.94
2018-09-01T21:19:49.566Z,10.86
2018-09-01T21:22:18.176Z,10.75
2018-09-01T21:24:46.982Z,10.63
2018-09-01T21:27:15.601Z,10.57
2018-09-01T21:29:44.286Z,10.53
2018-09-01T21:32:12.886Z,10.51
2018-09-01T21:34:41.452Z,10.50
2018-09-01T21:37:10.035Z,10.50
2018-09-01T21:39:38.607Z,10.48
2018-09-01T21:42:07.206Z,10.47
2018-09-01T21:44:35.771Z,10.41
2018-09-01T21:47:04.411Z,10.37
2018-09-01T21:49:33.026Z,10.28
2018-09-01T21:52:01.840Z,10.29
2018-09-01T21:54:30.449Z,10.29
2018-09-01T21:56:59.084Z,10.32
2018-09-01T21:59:27.917Z,10.37
2018-09-01T22:02:01.697Z,10.41
2018-09-01T22:04:35.317Z,10.32
2018-09-01T22:07:03.901Z,10.27
2018-09-01T22:09:32.509Z,10.21
2018-09-01T22:12:01.084Z,10.16
2018-09-01T22:14:29.681Z,10.15
2018-09-01T22:16:58.264Z,10.15
2018-09-01T22:19:26.864Z,10.11
2018-09-01T22:21:55.451Z,10.07
2018-09-01T22:24:24.056Z,10.03
2018-09-01T22:26:52.622Z,9.89
2018-09-01T22:29:21.201Z,9.72
2018-09-01T22:31:49.765Z,9.57
2018-09-01T22:34:18.424Z,9.56
2018-09-01T22:36:46.986Z,9.53
2018-09-01T22:39:15.570Z,9.44
2018-09-01T22:41:44.137Z,9.35
2018-09-01T22:44:12.718Z,9.31
2018-09-01T22:46:41.302Z,9.34
2018-09-01T22:49:09.894Z,9.44
2018-09-01T22:51:38.505Z,9.51
2018-09-01T22:54:07.086Z,9.55
2018-09-01T22:56:35.653Z,9.58
2018-09-01T22:59:04.289Z,9.60
2018-09-01T23:01:32.865Z,9.61
2018-09-01T23:04:01.444Z,9.60
2018-09-01T23:06:30.003Z,9.59
2018-09-01T23:08:58.590Z,9.48
2018-09-01T23:11:27.163Z,9.31
2018-09-01T23:13:55.754Z,9.18
2018-09-01T23:16:24.324Z,9.08
2018-09-01T23:18:52.933Z,9.03
2018-09-01T23:21:21.498Z,9.05
2018-09-01T23:23:50.085Z,9.04
2018-09-01T23:26:18.656Z,8.97
2018-09-01T23:28:47.233Z,8.89
2018-09-01T23:31:15.795Z,8.87
2018-09-01T23:33:44.381Z,8.89
2018-09-01T23:36:12.944Z,8.95
2018-09-01T23:38:41.518Z,8.99
2018-09-01T23:41:10.094Z,9.00
2018-09-01T23:43:38.686Z,8.98
2018-09-01T23:46:07.364Z,8.94
2018-09-01T23:48:35.940Z,8.93
2018-09-01T23:51:04.586Z,8.91
2018-09-01T23:53:33.177Z,8.88
2018-09-01T23:56:01.742Z,8.78
2018-09-01T23:58:30.350Z,8.80
